Time;durP1;ratioP1;P1;durP2;ratioP2;P2;SDS_P1;SDS_P2;PMS_P1;PMS_P2;Temp;Humidity;BMP_temperature;BMP_pressure;BME280_temperature;BME280_humidity;BME280_pressure;Samples;Min_cycle;Max_cycle;Signal;HPM_P1;HPM_P2
2022/03/29 00:01:42;;;;;;;21.70;11.23;;;6.70;24.70;;;;;;5058521;28;48040;-62
2022/03/29 00:04:07;;;;;;;23.13;11.07;;;6.70;24.70;;;;;;5060899;28;46454;-62
2022/03/29 00:06:33;;;;;;;28.83;11.50;;;6.80;24.80;;;;;;5061909;28;46529;-62
2022/03/29 00:08:58;;;;;;;20.40;10.97;;;6.60;24.60;;;;;;5063385;28;46331;-62
2022/03/29 00:11:24;;;;;;;25.97;12.40;;;6.60;24.60;;;;;;5062471;28;46084;-62
2022/03/29 00:13:49;;;;;;;22.60;11.63;;;6.70;24.70;;;;;;5062737;28;46380;-62
2022/03/29 00:16:15;;;;;;;22.33;10.30;;;6.60;24.60;;;;;;5062380;28;46618;-62
2022/03/29 00:18:41;;;;;;;22.93;12.10;;;6.60;24.60;;;;;;5063507;28;46324;-61
2022/03/29 00:21:06;;;;;;;23.00;12.57;;;6.70;24.70;;;;;;5063001;28;46300;-62
2022/03/29 00:23:32;;;;;;;26.63;11.90;;;6.60;24.60;;;;;;5061255;28;46388;-61
2022/03/29 00:25:57;;;;;;;21.83;11.23;;;6.70;24.70;;;;;;5061028;28;46363;-61
2022/03/29 00:28:23;;;;;;;17.80;10.37;;;6.60;24.60;;;;;;5053549;28;46275;-61
2022/03/29 00:30:49;;;;;;;25.03;11.63;;;6.60;24.70;;;;;;5056808;28;46588;-62
2022/03/29 00:33:15;;;;;;;22.43;11.33;;;6.60;24.60;;;;;;5056705;28;46855;-62
2022/03/29 00:35:41;;;;;;;21.50;11.50;;;6.60;24.60;;;;;;5059809;28;46492;-62
2022/03/29 00:38:06;;;;;;;27.60;12.37;;;6.60;24.70;;;;;;5061004;28;46397;-62
2022/03/29 00:40:32;;;;;;;27.20;12.13;;;6.70;24.70;;;;;;5061155;28;46380;-62
2022/03/29 00:42:57;;;;;;;22.80;11.50;;;6.70;24.80;;;;;;5061619;28;46096;-62
2022/03/29 00:45:23;;;;;;;24.00;11.30;;;6.80;24.70;;;;;;5058611;28;46346;-62
2022/03/29 00:47:49;;;;;;;18.93;10.20;;;6.80;24.70;;;;;;5053171;28;46589;-63
2022/03/29 00:50:15;;;;;;;24.90;12.53;;;6.90;24.80;;;;;;5054258;28;47195;-62
2022/03/29 00:52:41;;;;;;;24.80;13.20;;;6.80;24.70;;;;;;5061873;28;46359;-63
2022/03/29 00:55:11;;;;;;;22.60;11.20;;;6.80;24.80;;;;;;5059243;28;46308;-61
2022/03/29 00:57:37;;;;;;;20.83;10.80;;;6.80;24.90;;;;;;5061048;28;46440;-61
2022/03/29 01:00:04;;;;;;;24.07;12.17;;;6.80;24.80;;;;;;5062101;28;47123;-62
2022/03/29 01:02:29;;;;;;;24.93;12.07;;;6.80;25.00;;;;;;5057812;28;46405;-62
2022/03/29 01:04:55;;;;;;;23.23;12.07;;;6.80;25.20;;;;;;5050781;28;46612;-62
2022/03/29 01:07:21;;;;;;;25.13;11.73;;;6.80;25.40;;;;;;5053219;28;46117;-62
2022/03/29 01:09:47;;;;;;;23.23;11.30;;;6.80;25.50;;;;;;5052932;28;46485;-62
2022/03/29 01:12:12;;;;;;;36.90;11.37;;;6.70;25.90;;;;;;5051080;28;46364;-61
2022/03/29 01:14:40;;;;;;;23.70;12.10;;;6.70;25.60;;;;;;5057459;28;46354;-62
2022/03/29 01:19:50;;;;;;;24.17;12.20;;;6.60;25.80;;;;;;5059221;28;46478;-62
2022/03/29 01:22:19;;;;;;;26.67;11.27;;;6.60;25.90;;;;;;5061260;28;46762;-62
2022/03/29 01:24:46;;;;;;;31.03;12.00;;;6.60;25.90;;;;;;5061470;28;46096;-62
2022/03/29 01:27:12;;;;;;;24.03;11.40;;;6.60;26.00;;;;;;5060212;28;46224;-62
2022/03/29 01:29:39;;;;;;;24.40;11.30;;;6.50;26.00;;;;;;5060557;28;46981;-62
2022/03/29 01:32:08;;;;;;;25.77;12.50;;;6.50;26.10;;;;;;5060796;28;46475;-61
2022/03/29 01:34:41;;;;;;;27.10;11.20;;;6.50;26.30;;;;;;5061631;28;46532;-62
2022/03/29 01:37:07;;;;;;;25.33;13.17;;;6.50;26.50;;;;;;5061962;28;46465;-62
2022/03/29 01:39:35;;;;;;;28.30;11.90;;;6.40;26.50;;;;;;5061981;28;46412;-62
2022/03/29 01:42:01;;;;;;;24.70;12.03;;;6.40;26.60;;;;;;5060362;28;46295;-61
2022/03/29 01:44:27;;;;;;;27.10;11.93;;;6.30;26.70;;;;;;5056211;28;46895;-62
2022/03/29 01:46:53;;;;;;;23.30;12.00;;;6.30;26.90;;;;;;5060666;28;46373;-62
2022/03/29 01:49:19;;;;;;;24.70;11.70;;;6.20;27.00;;;;;;5054554;28;48178;-62
2022/03/29 01:51:45;;;;;;;23.83;12.90;;;6.20;27.10;;;;;;5055519;28;45847;-61
2022/03/29 01:54:11;;;;;;;21.40;12.90;;;6.10;27.20;;;;;;5058707;28;46511;-62
2022/03/29 01:56:37;;;;;;;20.43;11.50;;;6.00;27.40;;;;;;5059255;28;46370;-62
2022/03/29 01:59:13;;;;;;;22.93;12.70;;;6.00;27.50;;;;;;5060374;28;45953;-62
2022/03/29 02:01:47;;;;;;;20.83;11.30;;;6.00;27.70;;;;;;5059773;28;46497;-62
2022/03/29 02:04:13;;;;;;;24.83;11.87;;;6.00;27.70;;;;;;5060140;28;46359;-62
2022/03/29 02:06:39;;;;;;;24.37;12.33;;;6.00;27.70;;;;;;5060216;28;46298;-62
2022/03/29 02:09:08;;;;;;;23.33;11.37;;;5.90;27.80;;;;;;5059369;28;46220;-62
2022/03/29 02:11:35;;;;;;;28.43;12.60;;;5.90;27.90;;;;;;5058343;28;46523;-61
2022/03/29 02:14:01;;;;;;;22.97;11.60;;;5.90;28.00;;;;;;5055695;28;46439;-62
2022/03/29 02:16:28;;;;;;;21.53;10.93;;;5.90;28.10;;;;;;5057240;28;46355;-62
2022/03/29 02:18:54;;;;;;;20.50;12.30;;;5.90;28.20;;;;;;5056458;28;48225;-62
2022/03/29 02:21:19;;;;;;;24.60;12.50;;;5.80;28.30;;;;;;5057467;28;46232;-62
2022/03/29 02:23:45;;;;;;;21.10;11.57;;;5.80;28.30;;;;;;5058436;28;46393;-62
2022/03/29 02:26:11;;;;;;;23.07;11.67;;;5.80;28.50;;;;;;5053667;28;46444;-62
2022/03/29 02:28:36;;;;;;;23.57;11.63;;;5.70;28.60;;;;;;5056996;28;46382;-62
2022/03/29 02:31:02;;;;;;;22.73;11.97;;;5.70;28.70;;;;;;5054842;28;46721;-62
2022/03/29 02:33:28;;;;;;;21.93;12.00;;;5.60;28.70;;;;;;5056591;28;46724;-62
2022/03/29 02:35:54;;;;;;;19.87;11.47;;;5.60;28.90;;;;;;5057335;28;46490;-62
2022/03/29 02:38:20;;;;;;;34.27;12.20;;;5.50;29.00;;;;;;5056603;28;46385;-62
2022/03/29 02:40:47;;;;;;;23.10;12.17;;;5.50;29.00;;;;;;5057412;28;46435;-61
2022/03/29 02:43:12;;;;;;;23.33;11.53;;;5.40;29.00;;;;;;5057809;28;46504;-62
2022/03/29 02:45:38;;;;;;;21.40;10.43;;;5.50;29.10;;;;;;5057886;28;46413;-63
2022/03/29 02:48:04;;;;;;;24.33;12.20;;;5.40;29.10;;;;;;5056766;28;46334;-64
2022/03/29 02:50:30;;;;;;;26.00;12.40;;;5.40;29.10;;;;;;5058625;28;46357;-62
2022/03/29 02:52:58;;;;;;;22.00;11.23;;;5.40;29.30;;;;;;5059565;28;46289;-63
2022/03/29 02:55:26;;;;;;;23.90;11.70;;;5.20;29.60;;;;;;5058913;28;46536;-61
2022/03/29 02:57:53;;;;;;;20.47;11.23;;;5.10;29.70;;;;;;5055093;28;47214;-62
2022/03/29 03:00:19;;;;;;;27.37;12.13;;;5.10;29.80;;;;;;5058846;28;46496;-62
2022/03/29 03:02:53;;;;;;;24.33;12.77;;;5.00;29.80;;;;;;5054739;28;46340;-61
2022/03/29 03:05:21;;;;;;;25.10;13.00;;;5.00;29.90;;;;;;5059753;28;46372;-63
2022/03/29 03:07:47;;;;;;;25.20;12.33;;;4.90;29.90;;;;;;5054457;28;47120;-63
2022/03/29 03:10:14;;;;;;;27.77;12.53;;;4.90;30.00;;;;;;5054110;28;46507;-62
2022/03/29 03:12:50;;;;;;;29.83;13.43;;;4.90;30.00;;;;;;5055385;28;46382;-63
2022/03/29 03:15:18;;;;;;;31.43;13.60;;;4.90;31.40;;;;;;5058431;28;46494;-62
2022/03/29 03:17:44;;;;;;;31.50;13.47;;;4.90;30.00;;;;;;5051759;28;46338;-62
2022/03/29 03:20:11;;;;;;;44.40;15.60;;;4.90;30.00;;;;;;5058556;28;46552;-62
2022/03/29 03:22:37;;;;;;;41.07;15.40;;;5.00;30.10;;;;;;5062739;28;46297;-64
2022/03/29 03:25:03;;;;;;;35.60;15.90;;;5.00;30.10;;;;;;5061141;28;46537;-61
2022/03/29 03:27:29;;;;;;;39.53;14.57;;;5.00;30.20;;;;;;5055178;28;46962;-62
2022/03/29 03:29:55;;;;;;;27.63;13.50;;;4.90;30.30;;;;;;5060607;28;46738;-63
2022/03/29 03:32:20;;;;;;;20.23;11.33;;;4.80;30.40;;;;;;5060386;28;46548;-64
2022/03/29 03:34:46;;;;;;;25.60;12.60;;;4.90;30.80;;;;;;5059849;28;46484;-64
2022/03/29 03:37:12;;;;;;;24.30;11.27;;;4.70;30.90;;;;;;5061252;28;46409;-63
2022/03/29 03:39:38;;;;;;;27.47;13.03;;;4.70;31.10;;;;;;5062624;28;46422;-64
2022/03/29 03:42:09;;;;;;;22.17;11.17;;;4.60;31.20;;;;;;5057632;28;46429;-63
2022/03/29 03:44:36;;;;;;;21.37;12.43;;;4.40;31.40;;;;;;5060595;28;46545;-62
2022/03/29 03:47:03;;;;;;;24.80;11.90;;;4.40;31.60;;;;;;5057210;28;46950;-62
2022/03/29 03:49:28;;;;;;;31.43;11.90;;;4.30;31.60;;;;;;5058678;28;45788;-62
2022/03/29 03:51:54;;;;;;;31.03;11.30;;;4.30;31.60;;;;;;5060679;28;46224;-63
2022/03/29 03:54:21;;;;;;;25.43;11.63;;;4.30;31.60;;;;;;5062349;28;46176;-63
2022/03/29 03:56:46;;;;;;;30.30;11.40;;;4.30;31.70;;;;;;5062908;28;47060;-63
2022/03/29 03:59:12;;;;;;;24.93;11.60;;;4.30;31.60;;;;;;5060158;28;47097;-63
2022/03/29 04:01:38;;;;;;;24.27;12.73;;;4.30;31.60;;;;;;5060062;28;46595;-62
2022/03/29 04:04:04;;;;;;;23.27;11.83;;;4.40;31.40;;;;;;5059769;28;46387;-62
2022/03/29 04:06:30;;;;;;;21.93;11.63;;;4.50;31.50;;;;;;5057891;28;47219;-63
2022/03/29 04:08:55;;;;;;;25.90;12.40;;;4.50;31.40;;;;;;5059078;28;46406;-63
2022/03/29 04:11:21;;;;;;;22.23;11.13;;;4.60;31.60;;;;;;5060929;28;46430;-62
2022/03/29 04:13:47;;;;;;;23.40;11.10;;;4.70;31.60;;;;;;5059257;28;46418;-62
2022/03/29 04:16:12;;;;;;;47.97;12.10;;;4.60;31.60;;;;;;5060198;28;47900;-63
2022/03/29 04:18:38;;;;;;;22.03;10.10;;;4.60;31.60;;;;;;5058418;28;46484;-64
2022/03/29 04:21:08;;;;;;;27.20;12.90;;;4.60;31.70;;;;;;5059516;28;46456;-64
2022/03/29 04:23:37;;;;;;;28.77;12.10;;;4.60;31.90;;;;;;5059903;28;46320;-62
2022/03/29 04:26:04;;;;;;;20.67;11.40;;;4.60;31.90;;;;;;5062544;28;46364;-62
2022/03/29 04:28:31;;;;;;;21.65;11.85;;;4.60;32.00;;;;;;5062342;28;46355;-64
2022/03/29 04:30:58;;;;;;;23.10;12.17;;;4.60;32.00;;;;;;5061952;28;46574;-64
2022/03/29 04:33:24;;;;;;;28.30;12.83;;;4.60;32.00;;;;;;5061104;28;46354;-63
2022/03/29 04:35:50;;;;;;;20.90;11.27;;;4.60;32.00;;;;;;5061341;28;46166;-63
2022/03/29 04:38:16;;;;;;;23.63;11.37;;;4.70;32.00;;;;;;5061459;28;46472;-63
2022/03/29 04:40:41;;;;;;;26.40;11.70;;;4.70;32.10;;;;;;5061644;28;46429;-62
2022/03/29 04:43:07;;;;;;;30.30;12.03;;;4.70;32.00;;;;;;5044115;28;46320;-64
2022/03/29 04:45:32;;;;;;;19.83;10.73;;;4.80;32.20;;;;;;5062873;28;46483;-63
2022/03/29 04:47:58;;;;;;;27.70;11.50;;;4.70;32.30;;;;;;5062327;28;46358;-64
2022/03/29 04:50:24;;;;;;;28.20;11.67;;;4.70;32.40;;;;;;5060541;28;46325;-64
2022/03/29 04:52:50;;;;;;;24.60;11.83;;;4.70;32.40;;;;;;5058415;28;46265;-63
2022/03/29 04:55:18;;;;;;;21.23;11.10;;;4.70;32.50;;;;;;5058806;28;46397;-63
2022/03/29 04:57:47;;;;;;;20.83;10.13;;;4.70;32.40;;;;;;5059493;28;46373;-62
2022/03/29 05:00:14;;;;;;;22.40;11.67;;;4.70;32.60;;;;;;5060464;28;46499;-62
2022/03/29 05:02:41;;;;;;;23.23;11.70;;;4.60;32.70;;;;;;5062198;28;45930;-65
2022/03/29 05:05:07;;;;;;;27.90;12.37;;;4.60;33.00;;;;;;5059492;28;46220;-62
2022/03/29 05:07:33;;;;;;;24.00;12.30;;;4.50;32.90;;;;;;5062239;28;46376;-61
2022/03/29 05:09:59;;;;;;;24.77;11.77;;;4.40;33.10;;;;;;5062591;28;46381;-63
2022/03/29 05:12:25;;;;;;;26.33;12.60;;;4.40;33.20;;;;;;5061738;28;46497;-63
2022/03/29 05:14:51;;;;;;;25.63;11.43;;;4.40;33.30;;;;;;5061046;28;47268;-63
2022/03/29 05:17:17;;;;;;;26.03;11.67;;;4.40;33.40;;;;;;5061250;28;46299;-63
2022/03/29 05:19:42;;;;;;;28.80;12.67;;;4.40;33.30;;;;;;5062755;28;45851;-63
2022/03/29 05:22:08;;;;;;;23.37;11.97;;;4.40;33.50;;;;;;5061822;28;46664;-63
2022/03/29 05:24:34;;;;;;;23.60;11.53;;;4.40;33.40;;;;;;5060443;28;46397;-63
2022/03/29 05:26:59;;;;;;;21.87;12.00;;;4.40;33.60;;;;;;5062227;28;46260;-63
2022/03/29 05:29:27;;;;;;;33.30;11.90;;;4.50;33.50;;;;;;5061419;28;45808;-63
2022/03/29 05:31:53;;;;;;;18.97;10.80;;;4.80;33.70;;;;;;5055644;28;46450;-62
2022/03/29 05:34:19;;;;;;;25.90;11.27;;;4.90;33.80;;;;;;5053689;28;46479;-63
2022/03/29 05:36:46;;;;;;;19.47;10.20;;;5.00;33.70;;;;;;5061499;28;46350;-64
2022/03/29 05:39:13;;;;;;;20.00;11.20;;;5.20;34.10;;;;;;5062031;28;46412;-63
2022/03/29 05:41:40;;;;;;;21.07;10.93;;;5.30;34.00;;;;;;5060984;28;45879;-63
2022/03/29 05:44:05;;;;;;;23.13;11.43;;;5.30;34.00;;;;;;5060572;28;46404;-63
2022/03/29 05:49:15;;;;;;;25.20;12.27;;;5.60;33.90;;;;;;5060216;28;46360;-63
2022/03/29 05:51:42;;;;;;;24.07;12.33;;;5.70;33.80;;;;;;5061781;28;46535;-63
2022/03/29 05:54:08;;;;;;;23.00;11.90;;;5.80;33.90;;;;;;5051850;28;48090;-63
2022/03/29 05:56:33;;;;;;;28.40;13.40;;;5.90;33.90;;;;;;5046882;28;45928;-63
2022/03/29 05:58:59;;;;;;;24.07;11.87;;;5.90;34.10;;;;;;5061676;28;46478;-64
2022/03/29 06:01:25;;;;;;;23.30;10.53;;;6.00;34.00;;;;;;5059409;28;46281;-64
2022/03/29 06:03:51;;;;;;;22.00;12.63;;;6.30;33.80;;;;;;5058960;28;46503;-63
2022/03/29 06:06:17;;;;;;;23.83;10.93;;;6.50;33.40;;;;;;5052326;28;46470;-63
2022/03/29 06:08:42;;;;;;;21.03;10.23;;;6.80;33.00;;;;;;5047505;28;46299;-63
2022/03/29 06:11:08;;;;;;;24.13;10.70;;;7.00;32.70;;;;;;5056084;28;46346;-63
2022/03/29 06:13:34;;;;;;;20.90;10.50;;;7.30;32.50;;;;;;5046888;28;47075;-63
2022/03/29 06:16:00;;;;;;;19.77;10.83;;;7.60;32.50;;;;;;5052705;28;46385;-64
2022/03/29 06:18:26;;;;;;;21.50;11.30;;;7.90;32.00;;;;;;5050672;28;46379;-63
2022/03/29 06:20:52;;;;;;;22.53;11.27;;;8.20;31.60;;;;;;5051640;28;46560;-63
2022/03/29 06:23:19;;;;;;;20.57;11.77;;;8.40;31.20;;;;;;5059040;28;46952;-63
2022/03/29 06:25:46;;;;;;;21.80;10.57;;;8.50;31.10;;;;;;5059204;28;45962;-63
2022/03/29 06:28:11;;;;;;;24.80;11.00;;;8.60;30.90;;;;;;5060043;28;46688;-63
2022/03/29 06:30:38;;;;;;;22.30;11.20;;;8.70;30.80;;;;;;5059149;28;46319;-63
2022/03/29 06:33:04;;;;;;;25.10;12.73;;;8.80;30.80;;;;;;5057669;28;46469;-62
2022/03/29 06:35:31;;;;;;;21.40;10.97;;;8.90;30.60;;;;;;5057468;28;46353;-64
2022/03/29 06:37:58;;;;;;;28.10;12.50;;;9.00;30.60;;;;;;5059309;28;46438;-63
2022/03/29 06:40:26;;;;;;;28.37;11.20;;;9.20;30.40;;;;;;5057952;28;46284;-62
2022/03/29 06:42:53;;;;;;;23.10;12.27;;;9.50;30.20;;;;;;5058955;28;46385;-63
2022/03/29 06:45:19;;;;;;;23.70;12.77;;;9.70;30.00;;;;;;5060971;28;46774;-63
2022/03/29 06:47:45;;;;;;;29.20;13.40;;;10.00;29.20;;;;;;5060767;28;46429;-63
2022/03/29 06:50:11;;;;;;;27.97;14.20;;;10.20;29.00;;;;;;5061083;28;45959;-63
2022/03/29 06:52:42;;;;;;;28.80;14.23;;;10.40;28.70;;;;;;5058560;28;46314;-64
2022/03/29 06:55:10;;;;;;;35.60;13.83;;;10.60;28.50;;;;;;5059648;28;46351;-65
2022/03/29 06:57:36;;;;;;;27.30;14.30;;;10.80;28.30;;;;;;5059233;28;46420;-64
2022/03/29 07:00:04;;;;;;;30.20;16.03;;;11.00;28.20;;;;;;5059484;28;46545;-64
2022/03/29 07:02:29;;;;;;;30.67;15.70;;;11.20;28.00;;;;;;5058411;28;46444;-65
2022/03/29 07:04:55;;;;;;;28.43;14.97;;;11.40;28.70;;;;;;5058085;28;46503;-64
2022/03/29 07:07:21;;;;;;;21.50;11.70;;;11.60;27.20;;;;;;5059651;28;46442;-64
2022/03/29 07:12:31;;;;;;;21.63;11.20;;;12.00;27.50;;;;;;5059305;28;46393;-63
2022/03/29 07:14:58;;;;;;;30.20;12.90;;;12.20;27.60;;;;;;5056372;28;46244;-64
2022/03/29 07:17:24;;;;;;;21.33;12.23;;;12.40;27.00;;;;;;5056158;28;46440;-64
2022/03/29 07:19:50;;;;;;;32.40;14.97;;;12.60;26.70;;;;;;5058317;28;46339;-64
2022/03/29 07:22:16;;;;;;;31.33;14.33;;;12.70;26.30;;;;;;5057049;28;46348;-64
2022/03/29 07:24:42;;;;;;;32.00;13.90;;;12.90;26.10;;;;;;5056858;28;46386;-64
2022/03/29 07:27:08;;;;;;;31.77;15.20;;;13.10;25.90;;;;;;5042043;28;45808;-64
2022/03/29 07:29:34;;;;;;;25.53;12.40;;;13.20;25.60;;;;;;5057643;28;46701;-63
2022/03/29 07:32:01;;;;;;;27.40;12.27;;;13.30;25.30;;;;;;5059605;28;47333;-64
2022/03/29 07:34:26;;;;;;;24.80;11.73;;;13.40;25.10;;;;;;5059732;28;46409;-64
2022/03/29 07:36:52;;;;;;;29.90;12.33;;;13.60;25.00;;;;;;5059695;28;46658;-64
2022/03/29 07:39:18;;;;;;;33.57;17.00;;;13.70;24.70;;;;;;5060067;28;46346;-64
2022/03/29 07:41:44;;;;;;;43.67;21.00;;;13.80;24.50;;;;;;5058755;28;46381;-63
2022/03/29 07:44:09;;;;;;;26.40;15.00;;;13.90;24.40;;;;;;5057606;28;46599;-63
2022/03/29 07:46:35;;;;;;;27.20;14.87;;;14.00;24.30;;;;;;5058805;28;46096;-63
2022/03/29 07:49:00;;;;;;;24.30;12.70;;;14.10;24.10;;;;;;5059695;28;46659;-64
2022/03/29 07:51:26;;;;;;;112.17;17.73;;;14.30;23.80;;;;;;5059770;28;47613;-64
2022/03/29 07:53:52;;;;;;;32.30;17.10;;;14.60;23.60;;;;;;5055034;28;46460;-63
2022/03/29 07:56:17;;;;;;;29.00;14.17;;;14.70;23.40;;;;;;5059839;28;46292;-64
2022/03/29 07:58:43;;;;;;;29.80;15.50;;;14.90;23.10;;;;;;5059296;28;46326;-63
2022/03/29 08:01:09;;;;;;;27.93;15.00;;;15.10;22.80;;;;;;5060149;28;46417;-64
2022/03/29 08:03:34;;;;;;;23.53;13.07;;;15.30;22.50;;;;;;5059979;28;46144;-64
2022/03/29 08:06:01;;;;;;;23.80;12.70;;;15.40;22.30;;;;;;5054813;28;46478;-64
2022/03/29 08:08:27;;;;;;;30.23;13.17;;;15.60;22.10;;;;;;5065789;28;46625;-63
2022/03/29 08:10:54;;;;;;;29.00;14.40;;;15.80;21.80;;;;;;5062528;28;46110;-64
2022/03/29 08:13:21;;;;;;;32.10;13.00;;;16.10;21.50;;;;;;5057223;28;46397;-64
2022/03/29 08:15:49;;;;;;;31.60;15.90;;;16.40;21.20;;;;;;5060548;28;46406;-64
2022/03/29 08:18:16;;;;;;;23.20;13.50;;;16.70;20.50;;;;;;5061455;28;46303;-64
2022/03/29 08:20:42;;;;;;;28.30;13.50;;;16.80;20.10;;;;;;5047676;28;48286;-64
2022/03/29 08:23:09;;;;;;;28.80;12.10;;;16.80;20.20;;;;;;5062552;28;46956;-65
2022/03/29 08:25:37;;;;;;;26.23;15.00;;;16.80;20.10;;;;;;5048857;28;46302;-64
2022/03/29 08:28:03;;;;;;;22.80;12.97;;;16.80;20.10;;;;;;5062886;28;46325;-64
2022/03/29 08:30:31;;;;;;;33.93;13.20;;;16.90;20.20;;;;;;5062751;28;46274;-64
2022/03/29 08:32:58;;;;;;;35.53;18.73;;;17.00;20.30;;;;;;5050262;28;46655;-63
2022/03/29 08:35:24;;;;;;;32.83;17.50;;;17.20;20.20;;;;;;5061492;28;46461;-64
2022/03/29 08:37:50;;;;;;;24.97;14.63;;;17.40;19.60;;;;;;5062804;28;46516;-64
2022/03/29 08:40:21;;;;;;;25.73;13.40;;;17.60;19.30;;;;;;5055158;28;47075;-64
2022/03/29 08:42:47;;;;;;;29.17;13.43;;;17.60;18.30;;;;;;5056648;28;45805;-64
2022/03/29 08:45:17;;;;;;;35.37;16.67;;;17.60;18.10;;;;;;5063063;28;46431;-63
2022/03/29 08:47:45;;;;;;;30.30;13.47;;;17.80;17.80;;;;;;5062614;28;46286;-63
2022/03/29 08:50:13;;;;;;;35.37;16.13;;;17.90;17.70;;;;;;5062391;28;46508;-64
2022/03/29 08:52:40;;;;;;;33.77;14.60;;;17.90;17.50;;;;;;5062115;28;46382;-65
2022/03/29 08:55:09;;;;;;;26.90;15.13;;;18.00;17.30;;;;;;5061227;28;46423;-64
2022/03/29 08:57:36;;;;;;;22.60;12.10;;;18.00;17.30;;;;;;5061129;28;46374;-63
2022/03/29 09:00:04;;;;;;;28.53;13.30;;;18.10;17.10;;;;;;5060515;28;47166;-64
2022/03/29 09:02:34;;;;;;;23.73;12.00;;;18.10;16.90;;;;;;5059122;28;46329;-64
2022/03/29 09:05:12;;;;;;;24.93;15.27;;;18.20;16.70;;;;;;5057377;28;46396;-64
2022/03/29 09:07:47;;;;;;;41.33;20.93;;;18.20;16.30;;;;;;5060375;28;46335;-64
2022/03/29 09:10:14;;;;;;;38.07;14.90;;;18.20;16.10;;;;;;5062296;28;46411;-64
2022/03/29 09:12:40;;;;;;;32.80;16.73;;;18.20;16.40;;;;;;5058498;28;46335;-64
2022/03/29 09:15:06;;;;;;;29.60;14.87;;;18.10;16.30;;;;;;5060464;28;46406;-64
2022/03/29 09:17:32;;;;;;;33.53;16.17;;;18.10;16.40;;;;;;5060888;28;46507;-64
2022/03/29 09:19:59;;;;;;;29.13;12.97;;;18.10;15.90;;;;;;5061571;28;46996;-63
2022/03/29 09:22:39;;;;;;;36.23;15.70;;;18.20;15.80;;;;;;5060282;28;46501;-64
2022/03/29 09:25:05;;;;;;;21.70;13.27;;;18.40;15.30;;;;;;5060589;28;46435;-64
2022/03/29 09:27:54;;;;;;;26.40;13.20;;;18.40;15.40;;;;;;5059766;28;46334;-64
2022/03/29 09:30:21;;;;;;;28.13;13.77;;;18.70;15.00;;;;;;5061504;28;46408;-64
2022/03/29 09:32:54;;;;;;;29.90;13.50;;;18.70;15.20;;;;;;5058245;28;46445;-63
2022/03/29 09:35:20;;;;;;;28.10;15.50;;;18.70;14.90;;;;;;5060933;28;46426;-64
2022/03/29 09:37:47;;;;;;;49.00;16.60;;;18.60;14.70;;;;;;5061937;28;46410;-64
2022/03/29 09:40:13;;;;;;;30.93;15.87;;;18.40;13.90;;;;;;5061916;28;46490;-64
2022/03/29 09:42:40;;;;;;;63.03;18.30;;;18.30;14.60;;;;;;5058814;28;46157;-64
2022/03/29 09:45:08;;;;;;;88.97;16.60;;;18.40;14.70;;;;;;5058251;28;46445;-63
2022/03/29 09:47:34;;;;;;;53.30;16.07;;;18.50;14.30;;;;;;5062121;28;46440;-64
2022/03/29 09:50:06;;;;;;;24.30;13.10;;;18.60;13.40;;;;;;5054903;28;46613;-64
2022/03/29 09:52:50;;;;;;;32.20;15.30;;;18.30;13.00;;;;;;5060435;28;46381;-64
2022/03/29 09:55:21;;;;;;;27.50;12.67;;;18.60;13.80;;;;;;5056655;28;46476;-63
2022/03/29 09:57:55;;;;;;;28.27;12.77;;;18.80;13.00;;;;;;5057874;28;46561;-64
2022/03/29 10:00:29;;;;;;;26.03;14.63;;;18.70;13.30;;;;;;5055401;28;46447;-64
2022/03/29 10:02:55;;;;;;;30.20;15.00;;;18.90;13.30;;;;;;5055265;28;46560;-64
2022/03/29 10:05:23;;;;;;;25.47;13.33;;;18.60;12.30;;;;;;5061540;28;46429;-64
2022/03/29 10:10:59;;;;;;;29.97;15.00;;;18.70;13.40;;;;;;5056488;28;46303;-64
2022/03/29 10:13:24;;;;;;;40.93;15.70;;;18.90;13.30;;;;;;5060638;28;46361;-64
2022/03/29 10:15:51;;;;;;;28.07;14.80;;;19.10;13.30;;;;;;5059433;28;46245;-64
2022/03/29 10:18:18;;;;;;;27.53;15.10;;;19.20;13.30;;;;;;5060901;28;46467;-63
2022/03/29 10:20:44;;;;;;;26.90;13.07;;;19.20;13.30;;;;;;5061339;28;47062;-64
2022/03/29 10:23:14;;;;;;;31.07;17.47;;;19.20;13.30;;;;;;5055152;28;46421;-63
2022/03/29 10:25:41;;;;;;;30.90;16.63;;;19.30;13.20;;;;;;5057660;28;46076;-64
2022/03/29 10:28:07;;;;;;;47.23;13.90;;;19.30;13.10;;;;;;5060555;28;46454;-64
2022/03/29 10:30:35;;;;;;;39.83;18.33;;;19.20;13.00;;;;;;5061399;28;46906;-64
2022/03/29 10:33:19;;;;;;;27.97;14.17;;;19.20;13.10;;;;;;5064901;28;46478;-65
2022/03/29 10:36:06;;;;;;;67.60;15.37;;;19.10;12.80;;;;;;5060688;28;46354;-64
2022/03/29 10:41:31;;;;;;;31.30;15.00;;;19.10;13.00;;;;;;5059987;28;46665;-64
2022/03/29 10:44:08;;;;;;;22.67;12.10;;;19.00;12.30;;;;;;5057817;28;46551;-63
2022/03/29 10:46:38;;;;;;;21.97;11.93;;;19.00;12.90;;;;;;5060082;28;46505;-64
2022/03/29 10:49:24;;;;;;;27.13;14.40;;;19.30;12.90;;;;;;5056406;28;46389;-63
2022/03/29 10:52:03;;;;;;;29.17;16.37;;;19.20;12.00;;;;;;5060100;28;46919;-64
2022/03/29 10:54:33;;;;;;;42.30;15.53;;;19.00;11.90;;;;;;5057712;28;46497;-64
2022/03/29 10:57:02;;;;;;;25.10;12.10;;;18.60;11.60;;;;;;5060110;28;46303;-64
2022/03/29 10:59:29;;;;;;;27.03;13.80;;;18.60;12.30;;;;;;5060828;28;46592;-64
2022/03/29 11:02:08;;;;;;;28.57;14.57;;;18.50;12.20;;;;;;5056162;28;47227;-65
2022/03/29 11:04:34;;;;;;;28.37;17.93;;;19.00;12.20;;;;;;5059730;28;46715;-63
2022/03/29 11:07:06;;;;;;;28.83;14.80;;;19.40;12.30;;;;;;5058478;28;46304;-64
2022/03/29 11:09:33;;;;;;;38.43;13.80;;;19.70;12.20;;;;;;5060304;28;45891;-63
2022/03/29 11:11:59;;;;;;;26.23;14.50;;;19.90;12.10;;;;;;5059625;28;46218;-64
2022/03/29 11:14:31;;;;;;;26.70;12.80;;;20.10;12.10;;;;;;5052270;28;46378;-64
2022/03/29 11:17:09;;;;;;;36.07;14.40;;;19.80;11.20;;;;;;5046476;28;46475;-64
2022/03/29 11:19:48;;;;;;;26.63;14.30;;;19.60;12.70;;;;;;5060666;28;46393;-64
2022/03/29 11:22:39;;;;;;;26.87;14.90;;;19.40;11.80;;;;;;5056852;28;48020;-64
2022/03/29 11:25:09;;;;;;;23.50;13.70;;;19.10;11.20;;;;;;5054020;28;46454;-64
2022/03/29 11:27:36;;;;;;;44.33;16.37;;;19.10;11.60;;;;;;5060376;28;46267;-64
2022/03/29 11:30:05;;;;;;;29.57;14.90;;;18.90;11.30;;;;;;5058444;28;46513;-64
2022/03/29 11:32:34;;;;;;;29.93;15.63;;;18.70;12.10;;;;;;5056473;28;47171;-64
2022/03/29 11:35:02;;;;;;;42.03;12.43;;;18.60;12.20;;;;;;5058266;28;46813;-64
2022/03/29 11:37:44;;;;;;;36.10;12.80;;;18.90;12.30;;;;;;5059082;28;46571;-64
2022/03/29 11:40:12;;;;;;;29.10;13.80;;;18.90;11.80;;;;;;5063335;28;46464;-63
2022/03/29 11:42:54;;;;;;;21.93;12.90;;;18.90;11.80;;;;;;5059569;28;46613;-64
2022/03/29 11:45:25;;;;;;;31.43;15.27;;;18.90;12.00;;;;;;5062405;28;46330;-64
2022/03/29 11:47:56;;;;;;;50.53;15.10;;;19.00;11.80;;;;;;5062799;28;46595;-64
2022/03/29 11:50:36;;;;;;;21.07;13.30;;;19.00;11.70;;;;;;5061647;28;46375;-63
2022/03/29 11:53:14;;;;;;;22.97;12.10;;;18.80;11.90;;;;;;5060887;28;46570;-64
2022/03/29 11:55:39;;;;;;;25.43;11.97;;;18.90;11.30;;;;;;5063817;28;46354;-64
2022/03/29 11:58:20;;;;;;;21.87;12.20;;;18.80;11.60;;;;;;5061772;28;46373;-63
2022/03/29 12:00:46;;;;;;;170.03;20.13;;;19.10;11.80;;;;;;5060956;28;46558;-63
2022/03/29 12:03:12;;;;;;;31.07;16.50;;;19.40;11.50;;;;;;5061992;28;46362;-63
2022/03/29 12:05:38;;;;;;;28.17;12.67;;;19.50;11.50;;;;;;5060924;28;46866;-64
2022/03/29 12:08:05;;;;;;;20.70;11.60;;;19.80;11.40;;;;;;5058430;28;46449;-64
2022/03/29 12:10:34;;;;;;;19.77;10.50;;;20.10;11.40;;;;;;5061171;28;46540;-64
2022/03/29 12:13:03;;;;;;;36.73;14.80;;;20.40;11.60;;;;;;5057622;28;46661;-64
2022/03/29 12:15:29;;;;;;;32.33;14.13;;;20.20;11.50;;;;;;5058957;28;46459;-64
2022/03/29 12:18:40;;;;;;;23.27;12.47;;;20.00;11.30;;;;;;5059704;28;46377;-63
2022/03/29 12:20:43;;;;;;;23.70;12.00;;;20.10;12.40;;;;;;5062256;28;46409;-64
2022/03/29 12:23:24;;;;;;;26.03;12.30;;;20.20;11.50;;;;;;5056380;28;47329;-63
2022/03/29 12:25:49;;;;;;;19.87;11.70;;;20.20;11.00;;;;;;5056557;28;46420;-63
2022/03/29 12:28:19;;;;;;;22.10;12.37;;;20.40;11.40;;;;;;5062855;28;46462;-63
2022/03/29 12:30:45;;;;;;;46.10;13.53;;;20.60;11.10;;;;;;5058942;28;46441;-64
2022/03/29 12:33:11;;;;;;;28.30;12.60;;;20.80;10.50;;;;;;5061932;28;46426;-62
2022/03/29 12:35:36;;;;;;;26.17;15.10;;;20.70;10.30;;;;;;5062796;28;46380;-64
2022/03/29 12:38:06;;;;;;;19.33;11.40;;;20.50;10.30;;;;;;5062356;28;46465;-64
2022/03/29 12:40:32;;;;;;;26.83;12.00;;;20.70;10.50;;;;;;5060194;28;46381;-63
2022/03/29 12:43:03;;;;;;;31.67;12.40;;;20.40;10.50;;;;;;5060965;28;46390;-64
2022/03/29 12:45:28;;;;;;;18.57;11.43;;;20.20;10.90;;;;;;5062769;28;46284;-64
2022/03/29 12:47:56;;;;;;;27.07;13.80;;;20.10;10.80;;;;;;5062499;28;46898;-64
2022/03/29 12:50:22;;;;;;;23.40;12.90;;;20.00;11.20;;;;;;5060200;28;46354;-64